Time;durP1;ratioP1;P1;durP2;ratioP2;P2;SDS_P1;SDS_P2;PMS_P1;PMS_P2;Temp;Humidity;BMP_temperature;BMP_pressure;BME280_temperature;BME280_humidity;BME280_pressure;Samples;Min_cycle;Max_cycle;Signal;HPM_P1;HPM_P2
2022/11/09 00:00:00;;;;;;;385.17;184.23;;;;;;;11.56;87.21;100295.56;348983;28;1021;-71
2022/11/09 00:00:11;;;;;;;384.47;184.30;;;;;;;11.56;87.29;100290.31;349160;28;954;-72
2022/11/09 00:00:21;;;;;;;388.08;186.07;;;;;;;11.57;87.21;100289.41;346812;28;2084;-72
2022/11/09 00:00:31;;;;;;;386.63;181.48;;;;;;;11.58;87.10;100288.50;347449;28;1544;-72
2022/11/09 00:00:42;;;;;;;386.93;182.37;;;;;;;11.57;87.17;100286.78;346454;28;1350;-72
2022/11/09 00:00:52;;;;;;;385.83;178.15;;;;;;;11.57;87.30;100286.78;347492;28;1481;-72
2022/11/09 00:01:03;;;;;;;382.57;176.67;;;;;;;11.55;87.41;100288.59;347582;28;1012;-72
2022/11/09 00:01:14;;;;;;;382.52;174.48;;;;;;;11.53;87.23;100290.41;346092;28;1148;-72
2022/11/09 00:01:26;;;;;;;381.97;178.00;;;;;;;11.53;87.46;100290.41;347752;28;851;-72
2022/11/09 00:01:36;;;;;;;380.75;181.15;;;;;;;11.52;87.49;100286.06;343308;28;3503;-72
2022/11/09 00:01:46;;;;;;;386.07;185.90;;;;;;;11.53;87.64;100289.56;342883;28;2548;-72
2022/11/09 00:01:57;;;;;;;382.80;182.73;;;;;;;11.54;87.40;100286.88;342622;28;1235;-72
2022/11/09 00:02:07;;;;;;;386.63;184.27;;;;;;;11.54;87.21;100297.38;343163;28;1968;-72
2022/11/09 00:02:18;;;;;;;386.80;184.40;;;;;;;11.53;86.93;100287.78;341971;28;1450;-72
2022/11/09 00:02:28;;;;;;;387.52;184.57;;;;;;;11.53;87.21;100290.41;343595;28;866;-72
2022/11/09 00:02:38;;;;;;;384.10;183.53;;;;;;;11.56;87.14;100294.69;345043;28;1203;-73
2022/11/09 00:02:49;;;;;;;384.05;181.52;;;;;;;11.52;87.23;100293.94;346240;28;892;-73
2022/11/09 00:02:59;;;;;;;384.83;181.97;;;;;;;11.51;87.39;100294.84;342141;28;1093;-73
2022/11/09 00:03:10;;;;;;;385.23;180.63;;;;;;;11.49;87.40;100288.81;342233;28;953;-73
2022/11/09 00:03:20;;;;;;;384.83;182.18;;;;;;;11.51;87.30;100289.59;338296;29;837;-73
2022/11/09 00:03:30;;;;;;;383.83;184.07;;;;;;;11.51;87.30;100281.75;343515;28;1023;-72
2022/11/09 00:03:41;;;;;;;385.80;187.75;;;;;;;11.53;87.23;100290.41;342887;28;1670;-72
2022/11/09 00:03:55;;;;;;;386.70;189.50;;;;;;;11.53;87.06;100285.16;338130;29;1409;-72
2022/11/09 00:04:06;;;;;;;382.65;184.63;;;;;;;11.54;87.04;100283.41;335637;29;1255;-72
2022/11/09 00:04:16;;;;;;;379.77;180.83;;;;;;;11.53;87.07;100293.03;338406;29;1384;-72
2022/11/09 00:04:26;;;;;;;383.08;181.60;;;;;;;11.55;87.26;100283.34;342463;28;871;-72
2022/11/09 00:04:37;;;;;;;385.73;181.50;;;;;;;11.54;87.14;100286.88;342200;28;1350;-72
2022/11/09 00:04:48;;;;;;;386.50;179.57;;;;;;;11.54;87.17;100286.88;338518;29;1030;-72
2022/11/09 00:04:58;;;;;;;381.27;177.03;;;;;;;11.55;87.43;100288.59;335944;29;1919;-72
2022/11/09 00:05:08;;;;;;;382.75;179.20;;;;;;;11.53;87.05;100284.31;335762;29;885;-72
2022/11/09 00:05:19;;;;;;;383.87;180.27;;;;;;;11.53;86.84;100285.16;335630;29;2168;-72
2022/11/09 00:05:29;;;;;;;387.23;181.07;;;;;;;11.53;86.81;100293.03;337223;29;2067;-72
2022/11/09 00:05:40;;;;;;;382.63;175.27;;;;;;;11.54;87.08;100286.03;338211;29;1282;-72
2022/11/09 00:05:56;;;;;;;382.48;172.30;;;;;;;11.53;86.81;100285.16;333122;29;828;-72
2022/11/09 00:06:07;;;;;;;381.73;174.95;;;;;;;11.51;86.86;100289.59;324581;30;1193;-72
2022/11/09 00:06:17;;;;;;;387.70;183.88;;;;;;;11.53;86.90;100290.41;329916;29;1765;-72
2022/11/09 00:06:28;;;;;;;391.37;184.77;;;;;;;11.50;86.88;100290.50;328920;30;1709;-72
2022/11/09 00:06:38;;;;;;;389.27;184.55;;;;;;;11.50;87.12;100290.50;327008;30;867;-72
2022/11/09 00:06:48;;;;;;;388.80;180.63;;;;;;;11.51;86.96;100291.38;325366;30;1336;-72
2022/11/09 00:07:00;;;;;;;387.40;180.57;;;;;;;11.49;86.92;100291.44;327032;30;1413;-72
2022/11/09 00:07:10;;;;;;;387.58;180.45;;;;;;;11.50;86.92;100290.50;323317;30;1939;-72
2022/11/09 00:07:21;;;;;;;384.85;180.70;;;;;;;11.49;86.82;100288.81;323451;30;1246;-72
2022/11/09 00:07:31;;;;;;;386.97;184.77;;;;;;;11.50;86.93;100293.13;325780;30;2480;-72
2022/11/09 00:07:41;;;;;;;385.73;184.20;;;;;;;11.50;86.87;100285.28;325569;29;2539;-72
2022/11/09 00:07:52;;;;;;;387.03;182.97;;;;;;;11.51;86.64;100287.00;329437;30;1197;-72
2022/11/09 00:08:07;;;;;;;389.33;182.40;;;;;;;11.50;86.63;100290.50;328138;30;2593;-72
2022/11/09 00:08:17;;;;;;;388.85;183.35;;;;;;;11.50;86.52;100295.75;322978;30;2100;-71
2022/11/09 00:08:27;;;;;;;390.70;186.00;;;;;;;11.49;86.68;100280.94;322856;30;2655;-71
2022/11/09 00:08:39;;;;;;;391.87;188.77;;;;;;;11.49;86.56;100293.19;322076;30;1347;-71
2022/11/09 00:08:49;;;;;;;394.33;185.20;;;;;;;11.47;86.89;100290.63;324432;30;2004;-71
2022/11/09 00:09:00;;;;;;;392.67;186.00;;;;;;;11.46;86.72;100288.91;322881;30;2299;-71
2022/11/09 00:09:11;;;;;;;388.17;185.95;;;;;;;11.46;86.81;100283.66;321677;30;2110;-71
2022/11/09 00:09:21;;;;;;;383.35;184.35;;;;;;;11.46;86.74;100296.75;321032;30;904;-71
2022/11/09 00:09:31;;;;;;;382.10;179.60;;;;;;;11.45;86.78;100287.19;320436;30;2859;-71
2022/11/09 00:09:42;;;;;;;384.05;177.70;;;;;;;11.46;86.52;100294.16;317886;30;3478;-71
2022/11/09 00:09:52;;;;;;;386.50;176.13;;;;;;;11.45;86.55;100286.34;315190;31;1304;-71
2022/11/09 00:10:03;;;;;;;389.27;180.30;;;;;;;11.45;86.52;100292.44;318161;30;2928;-72
2022/11/09 00:10:14;;;;;;;389.88;183.23;;;;;;;11.45;86.76;100288.97;318136;30;3442;-72
2022/11/09 00:10:24;;;;;;;386.38;183.80;;;;;;;11.44;86.65;100290.72;314058;31;866;-72
2022/11/09 00:10:35;;;;;;;384.98;186.38;;;;;;;11.43;86.54;100294.25;311040;31;2259;-72
2022/11/09 00:10:45;;;;;;;382.77;184.10;;;;;;;11.44;86.63;100300.34;310781;31;3356;-71
2022/11/09 00:11:01;;;;;;;387.30;184.30;;;;;;;11.44;86.59;100295.09;309458;31;2769;-71
2022/11/09 00:11:12;;;;;;;392.15;181.73;;;;;;;11.43;86.74;100294.25;310754;31;1832;-71
2022/11/09 00:11:23;;;;;;;389.80;179.07;;;;;;;11.43;86.55;100293.38;309622;31;1214;-71
2022/11/09 00:11:33;;;;;;;384.38;179.55;;;;;;;11.45;86.52;100288.97;312210;31;2954;-71
2022/11/09 00:11:43;;;;;;;381.30;180.57;;;;;;;11.44;86.64;100295.97;313636;31;3799;-71
2022/11/09 00:11:54;;;;;;;384.47;183.73;;;;;;;11.44;86.63;100293.34;311881;31;1277;-71
2022/11/09 00:12:06;;;;;;;388.33;182.02;;;;;;;11.45;86.41;100291.56;307923;31;4621;-71
2022/11/09 00:12:16;;;;;;;392.10;184.48;;;;;;;11.44;86.40;100295.09;307513;31;3913;-71
2022/11/09 00:12:27;;;;;;;390.50;181.97;;;;;;;11.44;86.49;100292.47;309391;31;5913;-71
2022/11/09 00:12:37;;;;;;;386.67;185.27;;;;;;;11.44;86.53;100292.47;306218;32;1393;-71
2022/11/09 00:12:47;;;;;;;383.48;179.23;;;;;;;11.41;86.50;100295.22;302172;32;4147;-71
2022/11/09 00:12:58;;;;;;;383.73;180.77;;;;;;;11.39;86.32;100297.88;302717;32;4429;-71
2022/11/09 00:13:08;;;;;;;384.67;178.05;;;;;;;11.39;86.32;100297.88;307552;32;650;-71
2022/11/09 00:13:19;;;;;;;387.80;182.70;;;;;;;11.39;86.38;100289.16;306620;32;3534;-72
2022/11/09 00:13:29;;;;;;;390.42;185.93;;;;;;;11.37;86.15;100294.44;306796;32;2750;-72
2022/11/09 00:13:41;;;;;;;384.63;180.00;;;;;;;11.39;86.13;100286.53;306314;32;1192;-71
2022/11/09 00:13:51;;;;;;;380.80;176.20;;;;;;;11.37;86.10;100289.22;300285;32;841;-72
2022/11/09 00:14:01;;;;;;;376.90;172.50;;;;;;;11.37;86.15;100294.44;299649;32;5200;-71
2022/11/09 00:14:15;;;;;;;381.98;176.57;;;;;;;11.35;85.95;100291.03;297106;32;6890;-71
2022/11/09 00:14:26;;;;;;;379.63;178.00;;;;;;;11.36;85.70;100290.13;294345;32;6232;-71
2022/11/09 00:14:37;;;;;;;383.63;180.67;;;;;;;11.36;86.04;100286.63;296172;33;1068;-71
2022/11/09 00:14:47;;;;;;;388.92;185.65;;;;;;;11.34;86.14;100289.31;292838;33;7906;-71
2022/11/09 00:14:58;;;;;;;394.10;189.60;;;;;;;11.34;86.15;100294.53;291591;33;5863;-71
2022/11/09 00:15:09;;;;;;;388.63;188.13;;;;;;;11.33;86.14;100296.31;295082;33;1242;-71
2022/11/09 00:15:19;;;;;;;386.50;184.20;;;;;;;11.33;86.05;100295.47;294020;33;6338;-71
2022/11/09 00:15:29;;;;;;;383.52;179.10;;;;;;;11.33;86.00;100295.47;291826;33;4722;-71
2022/11/09 00:15:40;;;;;;;384.90;181.37;;;;;;;11.32;86.29;100288.50;291763;33;2972;-72
2022/11/09 00:15:50;;;;;;;380.30;178.68;;;;;;;11.30;86.68;100291.16;288128;34;1065;-71
2022/11/09 00:16:01;;;;;;;381.73;178.07;;;;;;;11.32;86.34;100291.13;286530;34;5236;-71
2022/11/09 00:16:13;;;;;;;381.55;174.52;;;;;;;11.33;86.17;100291.06;285355;33;8267;-72
2022/11/09 00:16:24;;;;;;;385.65;177.38;;;;;;;11.36;85.67;100297.13;292237;33;949;-72
2022/11/09 00:16:35;;;;;;;387.80;178.32;;;;;;;11.35;86.21;100296.25;290264;33;9099;-71
2022/11/09 00:16:45;;;;;;;386.98;181.55;;;;;;;11.35;86.21;100296.25;287684;34;8845;-71
2022/11/09 00:16:56;;;;;;;382.53;180.47;;;;;;;11.34;85.88;100289.31;286591;33;10338;-71
2022/11/09 00:17:06;;;;;;;382.10;182.05;;;;;;;11.34;86.23;100294.53;287956;34;2050;-71
2022/11/09 00:17:17;;;;;;;384.90;180.50;;;;;;;11.37;86.06;100299.69;281711;34;7358;-71
2022/11/09 00:17:27;;;;;;;382.42;179.23;;;;;;;11.39;86.01;100289.16;278946;35;9187;-71
2022/11/09 00:17:37;;;;;;;380.57;178.93;;;;;;;11.39;86.05;100297.88;279100;35;867;-71
2022/11/09 00:17:48;;;;;;;379.67;179.52;;;;;;;11.39;85.78;100283.91;278039;35;4784;-72
2022/11/09 00:19:33;;;;;;;370.14;167.36;;;;;;;11.38;85.42;100292.69;2499572;27;20490;-72
2022/11/09 00:19:43;;;;;;;383.57;179.13;;;;;;;11.38;85.39;100293.53;353044;28;1182;-72
2022/11/09 00:19:53;;;;;;;386.67;183.77;;;;;;;11.39;85.64;100291.78;350538;28;3437;-72
2022/11/09 00:20:04;;;;;;;387.37;186.67;;;;;;;11.38;85.53;100290.91;349048;28;2560;-72
2022/11/09 00:20:15;;;;;;;382.48;185.52;;;;;;;11.40;85.47;100289.09;347621;28;1159;-72
2022/11/09 00:20:25;;;;;;;382.20;184.57;;;;;;;11.38;85.39;100287.44;347613;28;1295;-72
2022/11/09 00:20:36;;;;;;;380.60;186.43;;;;;;;11.36;85.58;100286.63;346182;28;888;-72
2022/11/09 00:20:46;;;;;;;382.50;188.20;;;;;;;11.37;85.31;100297.06;347031;28;1773;-72
2022/11/09 00:20:56;;;;;;;382.65;187.63;;;;;;;11.35;85.45;100296.25;348994;28;869;-72
2022/11/09 00:21:11;;;;;;;379.30;183.30;;;;;;;11.34;85.44;100294.53;349017;28;912;-74
2022/11/09 00:21:22;;;;;;;379.02;178.02;;;;;;;11.32;85.37;100293.75;353204;28;999;-73
2022/11/09 00:21:33;;;;;;;378.90;177.52;;;;;;;11.32;85.35;100285.88;351778;28;907;-73
2022/11/09 00:21:43;;;;;;;382.50;181.27;;;;;;;11.31;85.32;100294.66;350386;28;915;-73
2022/11/09 00:21:53;;;;;;;384.83;181.40;;;;;;;11.29;85.26;100293.84;347206;28;1114;-72
2022/11/09 00:22:04;;;;;;;390.30;183.75;;;;;;;11.28;85.48;100294.75;347695;28;992;-72
2022/11/09 00:22:14;;;;;;;392.77;181.90;;;;;;;11.25;85.48;100297.50;347761;28;1871;-71
2022/11/09 00:22:25;;;;;;;390.98;181.15;;;;;;;11.25;85.68;100294.88;347008;28;1793;-71
2022/11/09 00:22:35;;;;;;;386.87;180.23;;;;;;;11.24;85.37;100298.41;348795;28;1237;-71
2022/11/09 00:22:48;;;;;;;385.50;183.97;;;;;;;11.23;85.47;100291.44;349047;28;887;-72
2022/11/09 00:22:59;;;;;;;381.35;182.05;;;;;;;11.25;85.44;100294.88;347257;28;942;-72
2022/11/09 00:23:10;;;;;;;382.13;181.33;;;;;;;11.23;85.42;100294.06;347521;28;1013;-72
2022/11/09 00:23:21;;;;;;;380.58;181.07;;;;;;;11.22;85.67;100287.13;348520;28;1397;-73
2022/11/09 00:23:31;;;;;;;384.00;180.07;;;;;;;11.21;85.58;100293.25;346127;28;1218;-73
2022/11/09 00:23:42;;;;;;;384.48;179.40;;;;;;;11.21;85.68;100288.03;346820;28;982;-73
2022/11/09 00:23:53;;;;;;;385.33;183.03;;;;;;;11.22;85.73;100292.34;346168;28;1208;-73
2022/11/09 00:24:03;;;;;;;384.92;183.25;;;;;;;11.21;85.71;100290.63;346296;28;915;-73
2022/11/09 00:24:14;;;;;;;387.92;183.90;;;;;;;11.20;85.70;100287.16;343859;28;1910;-72
2022/11/09 00:24:24;;;;;;;386.30;179.33;;;;;;;11.21;85.48;100293.25;342318;28;2251;-72
2022/11/09 00:24:34;;;;;;;381.52;174.90;;;;;;;11.20;85.59;100288.94;342265;28;1206;-72
2022/11/09 00:24:45;;;;;;;377.90;175.27;;;;;;;11.21;85.49;100290.63;343346;28;1289;-72
2022/11/09 00:24:55;;;;;;;380.55;179.43;;;;;;;11.22;85.49;100287.13;342124;28;1225;-72
2022/11/09 00:25:06;;;;;;;382.60;184.23;;;;;;;11.21;85.27;100288.88;342242;28;876;-72
2022/11/09 00:25:16;;;;;;;378.55;182.57;;;;;;;11.21;85.63;100286.25;346053;28;1863;-72
2022/11/09 00:25:27;;;;;;;378.87;181.33;;;;;;;11.24;85.51;100293.16;346197;28;1070;-72
2022/11/09 00:25:37;;;;;;;380.27;178.70;;;;;;;11.25;85.41;100292.25;346201;28;1034;-72
2022/11/09 00:25:48;;;;;;;379.67;179.03;;;;;;;11.26;85.62;100292.19;344692;28;1704;-72
2022/11/09 00:26:05;;;;;;;376.35;176.77;;;;;;;11.23;85.36;100288.84;344455;28;1215;-72
2022/11/09 00:26:16;;;;;;;376.05;177.52;;;;;;;11.23;85.46;100286.22;344828;28;1094;-72
2022/11/09 00:26:26;;;;;;;377.95;180.10;;;;;;;11.24;85.70;100288.78;340996;29;1426;-72
2022/11/09 00:26:37;;;;;;;378.58;185.55;;;;;;;11.22;85.63;100290.59;343567;28;1233;-72
2022/11/09 00:26:47;;;;;;;377.37;184.63;;;;;;;11.22;85.45;100284.50;340846;29;1398;-72
2022/11/09 00:26:57;;;;;;;378.58;183.93;;;;;;;11.21;85.69;100291.50;338624;29;885;-72
2022/11/09 00:27:08;;;;;;;381.73;179.20;;;;;;;11.22;85.31;100287.13;340718;28;2174;-72
2022/11/09 00:27:18;;;;;;;385.47;180.77;;;;;;;11.22;85.28;100289.72;343524;28;879;-73
2022/11/09 00:27:29;;;;;;;380.73;176.05;;;;;;;11.23;85.24;100286.22;341852;28;1651;-73
2022/11/09 00:27:39;;;;;;;381.50;177.73;;;;;;;11.24;85.27;100293.16;340235;29;1334;-73
2022/11/09 00:27:49;;;;;;;380.48;175.80;;;;;;;11.23;85.32;100294.94;339556;29;1293;-73
2022/11/09 00:28:00;;;;;;;379.70;177.17;;;;;;;11.23;85.32;100294.94;337669;29;1333;-73
2022/11/09 00:28:10;;;;;;;377.55;178.43;;;;;;;11.22;85.17;100289.72;337470;29;1665;-73
2022/11/09 00:28:21;;;;;;;380.10;180.60;;;;;;;11.22;85.31;100284.50;336913;29;1237;-73
2022/11/09 00:28:31;;;;;;;382.73;183.33;;;;;;;11.24;85.20;100282.69;336717;29;1978;-73
2022/11/09 00:28:42;;;;;;;383.02;179.65;;;;;;;11.22;85.58;100287.13;338271;29;956;-73
2022/11/09 00:28:52;;;;;;;379.50;179.38;;;;;;;11.21;85.28;100283.63;336990;29;1008;-73
2022/11/09 00:29:02;;;;;;;379.53;179.20;;;;;;;11.18;85.22;100288.97;335613;29;3485;-73
2022/11/09 00:29:13;;;;;;;381.17;179.87;;;;;;;11.17;85.34;100282.03;336014;29;1922;-72
2022/11/09 00:29:23;;;;;;;384.73;181.75;;;;;;;11.18;85.46;100285.50;334557;29;1450;-72
2022/11/09 00:29:33;;;;;;;383.43;180.47;;;;;;;11.17;85.22;100291.66;336998;29;1095;-72
2022/11/09 00:29:44;;;;;;;381.70;182.23;;;;;;;11.19;85.30;100287.22;336578;29;2307;-72
2022/11/09 00:29:54;;;;;;;376.50;178.53;;;;;;;11.17;85.27;100292.50;338121;29;1920;-72
2022/11/09 00:30:05;;;;;;;381.87;179.50;;;;;;;11.17;85.19;100289.03;338265;29;890;-72
2022/11/09 00:30:16;;;;;;;382.55;177.98;;;;;;;11.18;85.23;100282.88;337723;29;2132;-72
2022/11/09 00:30:26;;;;;;;383.07;180.83;;;;;;;11.18;85.37;100293.34;338401;29;2143;-72
2022/11/09 00:30:36;;;;;;;381.35;182.02;;;;;;;11.18;85.26;100288.13;337423;29;1372;-72
2022/11/09 00:30:47;;;;;;;382.13;181.43;;;;;;;11.16;85.20;100290.78;334306;29;830;-73
2022/11/09 00:31:01;;;;;;;376.67;178.07;;;;;;;11.15;85.35;100282.97;333170;29;1239;-73
2022/11/09 00:31:19;;;;;;;372.48;174.90;;;;;;;11.17;85.28;100287.25;336715;29;1271;-73
2022/11/09 00:31:30;;;;;;;374.20;179.82;;;;;;;11.18;85.33;100288.13;335290;29;1756;-73
2022/11/09 00:31:40;;;;;;;376.48;177.32;;;;;;;11.18;85.13;100290.75;331397;29;2158;-73
2022/11/09 00:31:51;;;;;;;377.30;178.07;;;;;;;11.19;85.25;100292.44;332105;29;872;-73
2022/11/09 00:32:01;;;;;;;376.48;176.05;;;;;;;11.20;85.08;100286.31;335069;29;2328;-73
2022/11/09 00:32:12;;;;;;;375.57;175.47;;;;;;;11.19;84.90;100289.84;333899;29;2544;-73
2022/11/09 00:32:22;;;;;;;372.38;171.98;;;;;;;11.18;85.07;100282.88;331423;29;2879;-73
2022/11/09 00:32:32;;;;;;;371.10;171.07;;;;;;;11.20;85.14;100286.31;330642;29;963;-73
2022/11/09 00:32:43;;;;;;;373.93;174.80;;;;;;;11.20;84.83;100291.56;329388;29;2731;-73
2022/11/09 00:32:54;;;;;;;378.45;174.32;;;;;;;11.21;85.03;100290.63;327768;30;1780;-73
2022/11/09 00:33:04;;;;;;;380.80;177.00;;;;;;;11.21;84.90;100288.88;325743;30;1070;-73
2022/11/09 00:33:15;;;;;;;378.40;178.23;;;;;;;11.21;84.96;100290.63;324178;30;1355;-73
2022/11/09 00:33:25;;;;;;;378.08;178.88;;;;;;;11.20;84.96;100287.16;324898;30;2093;-73
2022/11/09 00:33:36;;;;;;;378.23;178.37;;;;;;;11.20;84.93;100291.56;322011;30;1559;-73
2022/11/09 00:33:50;;;;;;;381.38;179.13;;;;;;;11.20;84.78;100281.94;325083;30;2645;-72
2022/11/09 00:34:00;;;;;;;381.98;182.45;;;;;;;11.20;84.83;100287.16;324850;30;2809;-72
2022/11/09 00:34:10;;;;;;;381.70;182.38;;;;;;;11.21;84.87;100285.41;322248;30;3107;-72
2022/11/09 00:34:21;;;;;;;378.53;176.53;;;;;;;11.23;84.63;100288.84;318964;30;908;-72
2022/11/09 00:34:31;;;;;;;376.70;175.97;;;;;;;11.21;84.74;100291.50;320449;30;3278;-72
2022/11/09 00:34:43;;;;;;;370.95;173.68;;;;;;;11.19;84.97;100288.06;320924;30;3469;-72
2022/11/09 00:34:53;;;;;;;371.02;177.05;;;;;;;11.20;84.94;100291.56;322461;30;3210;-72
2022/11/09 00:35:04;;;;;;;374.23;179.38;;;;;;;11.20;85.09;100287.16;318615;31;1320;-73
2022/11/09 00:35:14;;;;;;;379.47;180.40;;;;;;;11.15;85.13;100282.97;318164;30;2376;-73
2022/11/09 00:35:25;;;;;;;378.38;178.18;;;;;;;11.16;85.18;100284.69;314012;31;2313;-73
2022/11/09 00:35:37;;;;;;;372.10;175.23;;;;;;;11.12;85.09;100289.16;313049;31;941;-73
2022/11/09 00:35:47;;;;;;;369.90;176.55;;;;;;;11.12;85.10;100288.31;316512;31;1838;-73
2022/11/09 00:35:58;;;;;;;372.10;178.17;;;;;;;11.12;85.37;100288.31;314240;31;3552;-73
2022/11/09 00:36:10;;;;;;;376.98;181.60;;;;;;;11.12;85.02;100288.31;312310;31;3876;-72
2022/11/09 00:36:21;;;;;;;375.95;179.75;;;;;;;11.12;85.49;100283.94;309690;31;1010;-72
2022/11/09 00:36:31;;;;;;;376.85;179.82;;;;;;;11.12;84.95;100286.56;313318;31;4549;-72
2022/11/09 00:36:42;;;;;;;378.57;179.00;;;;;;;11.13;85.14;100290.03;312159;31;4195;-72
2022/11/09 00:36:52;;;;;;;378.17;173.95;;;;;;;11.13;85.19;100284.78;311097;31;4539;-71
2022/11/09 00:37:02;;;;;;;379.40;171.77;;;;;;;11.12;85.16;100289.16;309757;31;1333;-72
2022/11/09 00:37:13;;;;;;;377.35;173.15;;;;;;;11.12;85.27;100288.31;306100;32;4729;-71
2022/11/09 00:37:23;;;;;;;382.03;179.97;;;;;;;11.12;85.40;100288.31;306172;31;3344;-71
2022/11/09 00:37:34;;;;;;;382.15;180.82;;;;;;;11.13;85.21;100290.03;308635;32;915;-72
2022/11/09 00:37:44;;;;;;;380.20;181.30;;;;;;;11.11;85.10;100290.06;306452;32;3289;-73
2022/11/09 00:37:54;;;;;;;377.67;176.93;;;;;;;11.12;85.18;100293.56;307017;32;4187;-72
2022/11/09 00:38:05;;;;;;;375.00;175.40;;;;;;;11.11;85.21;100286.59;306243;32;3735;-72
2022/11/09 00:38:15;;;;;;;378.80;174.47;;;;;;;11.10;85.02;100290.13;304452;32;4909;-72
2022/11/09 00:38:26;;;;;;;378.60;175.30;;;;;;;11.11;85.12;100291.84;304584;32;5358;-72
2022/11/09 00:38:37;;;;;;;379.67;176.57;;;;;;;11.09;85.43;100286.66;302033;32;3917;-71
2022/11/09 00:38:50;;;;;;;374.12;177.10;;;;;;;11.08;85.31;100286.69;301189;32;896;-72
2022/11/09 00:39:01;;;;;;;376.15;176.13;;;;;;;11.09;85.22;100289.28;297103;32;5852;-72
2022/11/09 00:39:12;;;;;;;374.40;170.57;;;;;;;11.09;85.14;100288.41;297921;32;6596;-71
2022/11/09 00:39:22;;;;;;;377.30;171.27;;;;;;;11.07;85.01;100283.22;299261;32;6495;-71
2022/11/09 00:39:33;;;;;;;372.87;171.00;;;;;;;11.09;85.24;100288.41;300090;32;1529;-71
2022/11/09 00:39:43;;;;;;;376.42;175.50;;;;;;;11.08;85.00;100289.31;297626;33;4722;-71
2022/11/09 00:39:54;;;;;;;377.40;176.07;;;;;;;11.08;85.03;100287.56;296062;32;4929;-71
2022/11/09 00:40:04;;;;;;;379.63;175.73;;;;;;;11.08;85.09;100281.47;297109;33;1634;-72
2022/11/09 00:40:15;;;;;;;378.15;177.38;;;;;;;11.08;85.09;100286.69;293759;33;5839;-71
2022/11/09 00:40:25;;;;;;;377.73;177.33;;;;;;;11.10;85.04;100290.13;290335;33;6875;-73
2022/11/09 00:40:36;;;;;;;375.65;177.98;;;;;;;11.10;84.97;100284.88;291383;33;835;-73
2022/11/09 00:40:46;;;;;;;375.33;177.90;;;;;;;11.10;84.76;100282.28;290773;33;7556;-73
2022/11/09 00:41:00;;;;;;;376.80;182.15;;;;;;;11.09;85.06;100288.41;290869;33;8382;-73
2022/11/09 00:41:10;;;;;;;377.67;182.80;;;;;;;11.09;85.04;100288.41;290291;33;7984;-72
2022/11/09 00:41:21;;;;;;;376.08;179.93;;;;;;;11.07;85.35;100292.84;288268;34;987;-72
2022/11/09 00:41:31;;;;;;;375.33;176.43;;;;;;;11.07;85.08;100290.22;284964;34;8795;-72
2022/11/09 00:41:41;;;;;;;374.53;176.83;;;;;;;11.06;84.87;100291.97;286184;34;9200;-73
2022/11/09 00:41:52;;;;;;;375.47;178.33;;;;;;;11.06;84.96;100283.28;288108;34;6860;-72
2022/11/09 00:42:02;;;;;;;372.07;176.00;;;;;;;11.06;84.89;100293.75;287386;34;1395;-72
2022/11/09 00:42:13;;;;;;;375.33;176.23;;;;;;;11.07;85.12;100277.13;283576;34;7470;-72
2022/11/09 00:44:14;;;;;;;361.03;152.75;;;;;;;10.97;85.45;100289.66;2493774;27;20951;-73
2022/11/09 00:44:24;;;;;;;367.38;161.32;;;;;;;10.97;85.33;100287.03;353140;28;862;-72
2022/11/09 00:44:35;;;;;;;375.13;165.63;;;;;;;10.97;85.22;100290.50;350254;28;820;-72
2022/11/09 00:44:45;;;;;;;376.98;166.02;;;;;;;10.97;85.41;100290.50;348994;28;880;-72
2022/11/09 00:44:55;;;;;;;376.43;163.07;;;;;;;10.98;85.50;100292.22;349075;28;796;-72
2022/11/09 00:45:06;;;;;;;374.10;163.30;;;;;;;10.99;85.20;100293.94;350578;28;809;-72
2022/11/09 00:45:17;;;;;;;376.53;163.73;;;;;;;10.99;85.25;100293.09;350292;28;1208;-72
2022/11/09 00:45:27;;;;;;;377.85;164.88;;;;;;;10.99;85.34;100293.94;350420;28;863;-72
2022/11/09 00:45:39;;;;;;;375.30;164.00;;;;;;;10.99;85.37;100291.31;348795;28;935;-73
2022/11/09 00:45:49;;;;;;;375.92;169.18;;;;;;;11.03;85.34;100293.84;348290;28;1377;-72
2022/11/09 00:46:00;;;;;;;378.13;171.95;;;;;;;11.03;85.35;100293.84;346500;28;1275;-72
2022/11/09 00:46:10;;;;;;;376.83;170.60;;;;;;;11.02;85.18;100292.13;348731;28;940;-72
2022/11/09 00:46:21;;;;;;;371.90;166.43;;;;;;;11.00;85.29;100295.66;349258;28;1393;-72
2022/11/09 00:46:31;;;;;;;370.23;165.63;;;;;;;11.00;85.29;100287.78;347620;28;1078;-72
2022/11/09 00:46:42;;;;;;;375.55;169.25;;;;;;;11.01;85.41;100291.28;348713;28;1273;-72
2022/11/09 00:46:52;;;;;;;379.80;169.37;;;;;;;11.03;85.19;100299.09;349028;28;698;-72
2022/11/09 00:47:02;;;;;;;378.65;171.40;;;;;;;11.03;85.38;100293.84;348813;28;1386;-72
2022/11/09 00:47:13;;;;;;;372.90;172.17;;;;;;;11.03;85.09;100293.84;346346;28;3332;-72
2022/11/09 00:47:23;;;;;;;371.92;173.38;;;;;;;10.99;85.33;100293.94;346532;28;2994;-72
2022/11/09 00:47:34;;;;;;;371.93;171.73;;;;;;;10.98;85.35;100292.22;347582;28;1441;-72
2022/11/09 00:47:44;;;;;;;370.40;167.77;;;;;;;10.98;85.28;100291.38;347627;28;820;-72
2022/11/09 00:47:54;;;;;;;369.65;168.52;;;;;;;10.97;85.54;100295.75;345977;28;1322;-72
2022/11/09 00:48:05;;;;;;;371.40;169.97;;;;;;;10.98;85.54;100296.59;344759;28;1203;-73
2022/11/09 00:48:16;;;;;;;373.50;168.80;;;;;;;10.97;85.38;100298.38;347184;28;928;-72
2022/11/09 00:48:26;;;;;;;372.95;167.93;;;;;;;10.97;85.07;100290.50;347388;28;1215;-72
2022/11/09 00:48:36;;;;;;;374.60;167.30;;;;;;;10.97;85.29;100294.88;345317;28;1229;-72
2022/11/09 00:48:47;;;;;;;380.17;168.10;;;;;;;10.96;85.29;100288.78;343285;28;1719;-72
2022/11/09 00:48:57;;;;;;;385.43;172.80;;;;;;;10.96;85.39;100294.03;346016;28;899;-72
2022/11/09 00:49:08;;;;;;;383.67;176.32;;;;;;;10.98;85.55;100299.22;347539;28;1291;-72
2022/11/09 00:49:18;;;;;;;378.77;176.37;;;;;;;10.98;85.42;100297.47;347451;28;1164;-72
2022/11/09 00:49:28;;;;;;;376.43;172.40;;;;;;;10.98;85.54;100297.47;344793;28;1197;-72
2022/11/09 00:49:39;;;;;;;376.55;169.52;;;;;;;10.98;85.45;100289.59;344866;28;918;-72
2022/11/09 00:49:49;;;;;;;376.33;168.20;;;;;;;10.98;85.75;100294.84;344754;28;965;-72
2022/11/09 00:50:00;;;;;;;375.95;165.40;;;;;;;10.98;85.89;100291.38;346042;28;1290;-72
2022/11/09 00:50:10;;;;;;;372.90;163.77;;;;;;;10.97;85.94;100295.75;349393;28;1249;-72
2022/11/09 00:50:20;;;;;;;372.70;166.32;;;;;;;10.97;85.66;100293.13;349332;28;963;-72
2022/11/09 00:50:31;;;;;;;373.83;172.67;;;;;;;10.96;85.98;100288.78;348019;28;1642;-72
2022/11/09 00:50:41;;;;;;;377.13;174.38;;;;;;;10.96;86.11;100294.03;347336;28;1152;-72
2022/11/09 00:50:52;;;;;;;377.20;174.10;;;;;;;10.96;86.12;100290.56;346916;28;1086;-72
2022/11/09 00:51:03;;;;;;;375.58;173.68;;;;;;;10.96;86.04;100294.03;344693;28;1411;-72
2022/11/09 00:51:13;;;;;;;377.13;173.52;;;;;;;10.97;86.11;100293.13;344687;28;1162;-72
2022/11/09 00:51:24;;;;;;;376.17;172.70;;;;;;;10.98;86.05;100288.75;344874;28;1343;-72
2022/11/09 00:51:34;;;;;;;376.00;171.73;;;;;;;10.99;86.17;100287.84;343470;28;895;-72
2022/11/09 00:51:45;;;;;;;372.07;172.30;;;;;;;10.97;86.13;100290.50;343565;28;912;-72
2022/11/09 00:51:55;;;;;;;374.35;173.38;;;;;;;10.97;86.04;100284.41;344811;28;868;-72
2022/11/09 00:52:05;;;;;;;375.17;171.87;;;;;;;10.99;86.08;100293.94;343154;28;1578;-72
2022/11/09 00:52:16;;;;;;;373.33;168.43;;;;;;;10.98;86.08;100289.59;346041;28;940;-72